SLVR/VVI METAR and TAF weather

Enter ICAO airport designator
Station Type Date Time Source
SLVR METAR 2021/02/27 09:00 UTC NOAA

SLVR 270900Z 35003KT 9999 FEW027 BKN200 22/21 Q1011


Station Type Date Time Source
SLVR Decoded METAR 2021/02/27 09:00 UTC NOAA

Viru-Viru, Bolivia (SLVR) 17-38S 063-08W
Feb 27, 2021 - 04:00 AM EST / 2021.02.27 0900 UTC
Wind: from the N (350 degrees) at 3 MPH (3 KT):0
Visibility: greater than 7 mile(s):0
Sky conditions: mostly cloudy
Temperature: 71 F (22 C)
Dew Point: 69 F (21 C)
Relative Humidity: 94%
Pressure (altimeter): 29.85 in. Hg (1011 hPa)
ob: SLVR 270900Z 35003KT 9999 FEW027 BKN200 22/21 Q1011
cycle: 9

Station Type Date Time Source
SLVR TAF 2021/02/27 06:10 UTC NOAA

TAF SLVR 270400Z 2706/2806 VRB02KT 9999 SCT015 TX29/2719Z TN23/2710Z PROB40
TEMPO 2707/2710 16010KT 6000 RA SCT010 BKN020
BECMG 2712/2714 18010KT 6000 SHRA SCT010 BKN020 FEW030CB BKN070
BECMG 2721/2723 9999 FEW020
BECMG 2723/2801 18015KT SCT023

Example: see airport list